sensor_id;sensor_type;location;lat;lon;timestamp;P1;durP1;ratioP1;P2;durP2;ratioP2
16928;SDS011;8581;47.334;11.190;2023-04-03T00:04:54;0.20;;;0.20;;
16928;SDS011;8581;47.334;11.190;2023-04-03T00:07:44;0.40;;;0.40;;
16928;SDS011;8581;47.334;11.190;2023-04-03T00:10:36;0.30;;;0.30;;
16928;SDS011;8581;47.334;11.190;2023-04-03T00:13:09;0.30;;;0.30;;
16928;SDS011;8581;47.334;11.190;2023-04-03T00:15:47;0.40;;;0.30;;
16928;SDS011;8581;47.334;11.190;2023-04-03T00:18:30;0.30;;;0.30;;
16928;SDS011;8581;47.334;11.190;2023-04-03T00:21:11;0.20;;;0.20;;
16928;SDS011;8581;47.334;11.190;2023-04-03T00:23:59;0.30;;;0.30;;
16928;SDS011;8581;47.334;11.190;2023-04-03T00:26:50;0.30;;;0.30;;
16928;SDS011;8581;47.334;11.190;2023-04-03T00:29:42;0.63;;;0.23;;
16928;SDS011;8581;47.334;11.190;2023-04-03T00:32:15;0.40;;;0.40;;
16928;SDS011;8581;47.334;11.190;2023-04-03T00:37:41;0.30;;;0.30;;
16928;SDS011;8581;47.334;11.190;2023-04-03T00:40:45;0.43;;;0.20;;
16928;SDS011;8581;47.334;11.190;2023-04-03T00:43:19;0.30;;;0.30;;
16928;SDS011;8581;47.334;11.190;2023-04-03T00:45:53;0.33;;;0.33;;
16928;SDS011;8581;47.334;11.190;2023-04-03T00:48:41;0.30;;;0.30;;
16928;SDS011;8581;47.334;11.190;2023-04-03T00:51:14;0.30;;;0.30;;
16928;SDS011;8581;47.334;11.190;2023-04-03T00:53:50;0.37;;;0.37;;
16928;SDS011;8581;47.334;11.190;2023-04-03T00:56:21;0.30;;;0.30;;
16928;SDS011;8581;47.334;11.190;2023-04-03T00:58:58;0.40;;;0.40;;
16928;SDS011;8581;47.334;11.190;2023-04-03T01:01:40;0.40;;;0.40;;
16928;SDS011;8581;47.334;11.190;2023-04-03T01:07:16;0.40;;;0.40;;
16928;SDS011;8581;47.334;11.190;2023-04-03T01:09:47;0.40;;;0.40;;
16928;SDS011;8581;47.334;11.190;2023-04-03T01:12:21;0.50;;;0.50;;
16928;SDS011;8581;47.334;11.190;2023-04-03T01:14:57;0.60;;;0.60;;
16928;SDS011;8581;47.334;11.190;2023-04-03T01:17:43;0.57;;;0.57;;
16928;SDS011;8581;47.334;11.190;2023-04-03T01:23:22;0.50;;;0.50;;
16928;SDS011;8581;47.334;11.190;2023-04-03T01:26:01;0.40;;;0.40;;
16928;SDS011;8581;47.334;11.190;2023-04-03T01:28:34;0.50;;;0.50;;
16928;SDS011;8581;47.334;11.190;2023-04-03T01:34:05;0.50;;;0.50;;
16928;SDS011;8581;47.334;11.190;2023-04-03T01:36:50;0.60;;;0.60;;
16928;SDS011;8581;47.334;11.190;2023-04-03T01:39:35;0.80;;;0.80;;
16928;SDS011;8581;47.334;11.190;2023-04-03T01:42:10;0.87;;;0.87;;
16928;SDS011;8581;47.334;11.190;2023-04-03T01:44:53;0.60;;;0.60;;
16928;SDS011;8581;47.334;11.190;2023-04-03T01:47:38;0.70;;;0.70;;
16928;SDS011;8581;47.334;11.190;2023-04-03T01:50:11;0.70;;;0.70;;
16928;SDS011;8581;47.334;11.190;2023-04-03T01:52:44;1.00;;;1.00;;
16928;SDS011;8581;47.334;11.190;2023-04-03T01:55:16;0.93;;;0.93;;
16928;SDS011;8581;47.334;11.190;2023-04-03T01:57:47;1.00;;;1.00;;
16928;SDS011;8581;47.334;11.190;2023-04-03T02:00:19;1.00;;;1.00;;
16928;SDS011;8581;47.334;11.190;2023-04-03T02:02:51;1.07;;;1.07;;
16928;SDS011;8581;47.334;11.190;2023-04-03T02:05:22;1.50;;;1.40;;
16928;SDS011;8581;47.334;11.190;2023-04-03T02:07:54;1.27;;;1.27;;
16928;SDS011;8581;47.334;11.190;2023-04-03T02:10:26;1.53;;;1.43;;
16928;SDS011;8581;47.334;11.190;2023-04-03T02:12:57;1.53;;;1.43;;
16928;SDS011;8581;47.334;11.190;2023-04-03T02:15:29;1.53;;;1.43;;
16928;SDS011;8581;47.334;11.190;2023-04-03T02:18:00;1.70;;;1.60;;
16928;SDS011;8581;47.334;11.190;2023-04-03T02:20:32;1.83;;;1.73;;
16928;SDS011;8581;47.334;11.190;2023-04-03T02:23:03;1.50;;;1.40;;
16928;SDS011;8581;47.334;11.190;2023-04-03T02:25:35;1.77;;;1.67;;
16928;SDS011;8581;47.334;11.190;2023-04-03T02:28:07;1.63;;;1.53;;
16928;SDS011;8581;47.334;11.190;2023-04-03T02:30:38;1.70;;;1.60;;
16928;SDS011;8581;47.334;11.190;2023-04-03T02:33:10;1.60;;;1.50;;
16928;SDS011;8581;47.334;11.190;2023-04-03T02:35:41;1.73;;;1.63;;
16928;SDS011;8581;47.334;11.190;2023-04-03T02:38:13;1.80;;;1.70;;
16928;SDS011;8581;47.334;11.190;2023-04-03T02:40:45;1.70;;;1.60;;
16928;SDS011;8581;47.334;11.190;2023-04-03T02:43:16;1.90;;;1.80;;
16928;SDS011;8581;47.334;11.190;2023-04-03T02:45:48;1.67;;;1.57;;
16928;SDS011;8581;47.334;11.190;2023-04-03T02:48:19;1.83;;;1.73;;
16928;SDS011;8581;47.334;11.190;2023-04-03T02:50:51;2.43;;;2.10;;
16928;SDS011;8581;47.334;11.190;2023-04-03T02:53:23;2.13;;;2.03;;
16928;SDS011;8581;47.334;11.190;2023-04-03T02:55:54;2.10;;;2.00;;
16928;SDS011;8581;47.334;11.190;2023-04-03T02:58:26;2.80;;;2.60;;
16928;SDS011;8581;47.334;11.190;2023-04-03T03:00:58;2.57;;;2.40;;
16928;SDS011;8581;47.334;11.190;2023-04-03T03:03:29;2.93;;;2.73;;
16928;SDS011;8581;47.334;11.190;2023-04-03T03:06:03;2.73;;;2.53;;
16928;SDS011;8581;47.334;11.190;2023-04-03T03:08:36;2.70;;;2.50;;
16928;SDS011;8581;47.334;11.190;2023-04-03T03:11:07;2.70;;;2.50;;
16928;SDS011;8581;47.334;11.190;2023-04-03T03:13:39;2.37;;;2.27;;
16928;SDS011;8581;47.334;11.190;2023-04-03T03:16:10;2.23;;;2.13;;
16928;SDS011;8581;47.334;11.190;2023-04-03T03:18:42;2.77;;;2.57;;
16928;SDS011;8581;47.334;11.190;2023-04-03T03:21:13;2.50;;;2.40;;
16928;SDS011;8581;47.334;11.190;2023-04-03T03:23:45;2.80;;;2.60;;
16928;SDS011;8581;47.334;11.190;2023-04-03T03:26:17;2.20;;;2.00;;
16928;SDS011;8581;47.334;11.190;2023-04-03T03:28:48;3.00;;;2.80;;
16928;SDS011;8581;47.334;11.190;2023-04-03T03:31:20;2.77;;;2.57;;
16928;SDS011;8581;47.334;11.190;2023-04-03T03:33:51;2.93;;;2.73;;
16928;SDS011;8581;47.334;11.190;2023-04-03T03:36:23;3.33;;;3.10;;
16928;SDS011;8581;47.334;11.190;2023-04-03T03:38:55;2.90;;;2.70;;
16928;SDS011;8581;47.334;11.190;2023-04-03T03:41:26;3.00;;;2.80;;
16928;SDS011;8581;47.334;11.190;2023-04-03T03:43:58;2.90;;;2.70;;
16928;SDS011;8581;47.334;11.190;2023-04-03T03:46:29;3.20;;;3.00;;
16928;SDS011;8581;47.334;11.190;2023-04-03T03:49:01;3.00;;;2.80;;
16928;SDS011;8581;47.334;11.190;2023-04-03T03:51:33;3.20;;;3.00;;
16928;SDS011;8581;47.334;11.190;2023-04-03T03:54:04;3.00;;;2.80;;
16928;SDS011;8581;47.334;11.190;2023-04-03T03:56:36;3.33;;;3.13;;
16928;SDS011;8581;47.334;11.190;2023-04-03T03:59:08;3.20;;;2.90;;
16928;SDS011;8581;47.334;11.190;2023-04-03T04:01:39;3.80;;;3.10;;
16928;SDS011;8581;47.334;11.190;2023-04-03T04:04:11;2.90;;;2.70;;
16928;SDS011;8581;47.334;11.190;2023-04-03T04:06:43;3.10;;;2.90;;
16928;SDS011;8581;47.334;11.190;2023-04-03T04:09:14;3.00;;;2.80;;
16928;SDS011;8581;47.334;11.190;2023-04-03T04:11:46;2.80;;;2.60;;
16928;SDS011;8581;47.334;11.190;2023-04-03T04:14:17;3.00;;;2.80;;
16928;SDS011;8581;47.334;11.190;2023-04-03T04:16:49;3.00;;;2.80;;
16928;SDS011;8581;47.334;11.190;2023-04-03T04:19:21;2.93;;;2.73;;
16928;SDS011;8581;47.334;11.190;2023-04-03T04:21:52;3.23;;;3.03;;
16928;SDS011;8581;47.334;11.190;2023-04-03T04:24:24;3.33;;;3.13;;
16928;SDS011;8581;47.334;11.190;2023-04-03T04:26:55;2.93;;;2.73;;
16928;SDS011;8581;47.334;11.190;2023-04-03T04:29:27;3.00;;;2.80;;
16928;SDS011;8581;47.334;11.190;2023-04-03T04:31:59;2.93;;;2.73;;
16928;SDS011;8581;47.334;11.190;2023-04-03T04:34:30;3.03;;;2.83;;
16928;SDS011;8581;47.334;11.190;2023-04-03T04:37:02;2.97;;;2.77;;
16928;SDS011;8581;47.334;11.190;2023-04-03T04:39:33;3.00;;;2.80;;
16928;SDS011;8581;47.334;11.190;2023-04-03T04:42:05;2.80;;;2.50;;
16928;SDS011;8581;47.334;11.190;2023-04-03T04:44:37;2.73;;;2.53;;
16928;SDS011;8581;47.334;11.190;2023-04-03T04:47:08;2.77;;;2.57;;
16928;SDS011;8581;47.334;11.190;2023-04-03T04:49:40;2.90;;;2.70;;
16928;SDS011;8581;47.334;11.190;2023-04-03T04:52:11;2.37;;;2.27;;
16928;SDS011;8581;47.334;11.190;2023-04-03T04:54:43;2.90;;;2.70;;
16928;SDS011;8581;47.334;11.190;2023-04-03T04:57:15;2.60;;;2.43;;
16928;SDS011;8581;47.334;11.190;2023-04-03T04:59:46;2.50;;;2.30;;
16928;SDS011;8581;47.334;11.190;2023-04-03T05:02:18;2.83;;;2.63;;
16928;SDS011;8581;47.334;11.190;2023-04-03T05:04:49;2.50;;;2.30;;
16928;SDS011;8581;47.334;11.190;2023-04-03T05:07:21;2.50;;;2.30;;
16928;SDS011;8581;47.334;11.190;2023-04-03T05:09:53;1.90;;;1.80;;
16928;SDS011;8581;47.334;11.190;2023-04-03T05:12:24;1.97;;;1.87;;
16928;SDS011;8581;47.334;11.190;2023-04-03T05:14:56;2.30;;;2.20;;
16928;SDS011;8581;47.334;11.190;2023-04-03T05:17:27;2.20;;;2.10;;
16928;SDS011;8581;47.334;11.190;2023-04-03T05:19:59;2.17;;;1.97;;
16928;SDS011;8581;47.334;11.190;2023-04-03T05:22:30;2.20;;;2.07;;
16928;SDS011;8581;47.334;11.190;2023-04-03T05:25:02;2.00;;;1.90;;
16928;SDS011;8581;47.334;11.190;2023-04-03T05:27:35;1.93;;;1.83;;
16928;SDS011;8581;47.334;11.190;2023-04-03T05:30:06;1.87;;;1.77;;
16928;SDS011;8581;47.334;11.190;2023-04-03T05:32:39;2.30;;;2.10;;
16928;SDS011;8581;47.334;11.190;2023-04-03T05:35:11;1.70;;;1.60;;
16928;SDS011;8581;47.334;11.190;2023-04-03T05:37:42;1.70;;;1.60;;
16928;SDS011;8581;47.334;11.190;2023-04-03T05:40:14;1.60;;;1.50;;
16928;SDS011;8581;47.334;11.190;2023-04-03T05:42:46;2.40;;;2.20;;
16928;SDS011;8581;47.334;11.190;2023-04-03T05:45:17;2.30;;;2.10;;
16928;SDS011;8581;47.334;11.190;2023-04-03T05:47:49;1.70;;;1.60;;
16928;SDS011;8581;47.334;11.190;2023-04-03T05:50:20;1.53;;;1.43;;
16928;SDS011;8581;47.334;11.190;2023-04-03T05:52:52;1.90;;;1.43;;
16928;SDS011;8581;47.334;11.190;2023-04-03T05:55:23;1.53;;;1.43;;
16928;SDS011;8581;47.334;11.190;2023-04-03T05:57:55;1.73;;;1.63;;
16928;SDS011;8581;47.334;11.190;2023-04-03T06:00:27;1.50;;;1.40;;
16928;SDS011;8581;47.334;11.190;2023-04-03T06:02:58;1.50;;;1.40;;
16928;SDS011;8581;47.334;11.190;2023-04-03T06:05:30;1.43;;;1.33;;
16928;SDS011;8581;47.334;11.190;2023-04-03T06:08:02;1.30;;;1.20;;
16928;SDS011;8581;47.334;11.190;2023-04-03T06:10:33;1.30;;;1.20;;
16928;SDS011;8581;47.334;11.190;2023-04-03T06:13:05;1.33;;;1.23;;
16928;SDS011;8581;47.334;11.190;2023-04-03T06:15:37;1.60;;;1.50;;
16928;SDS011;8581;47.334;11.190;2023-04-03T06:18:08;1.27;;;1.23;;
16928;SDS011;8581;47.334;11.190;2023-04-03T06:20:40;1.40;;;1.30;;
16928;SDS011;8581;47.334;11.190;2023-04-03T06:23:12;1.10;;;1.10;;
16928;SDS011;8581;47.334;11.190;2023-04-03T06:25:43;1.30;;;1.20;;
16928;SDS011;8581;47.334;11.190;2023-04-03T06:28:15;1.60;;;1.50;;
16928;SDS011;8581;47.334;11.190;2023-04-03T06:30:46;1.40;;;1.30;;
16928;SDS011;8581;47.334;11.190;2023-04-03T06:33:18;1.37;;;1.27;;
16928;SDS011;8581;47.334;11.190;2023-04-03T06:35:52;1.10;;;1.10;;
16928;SDS011;8581;47.334;11.190;2023-04-03T06:38:21;1.43;;;1.33;;
16928;SDS011;8581;47.334;11.190;2023-04-03T06:40:53;1.30;;;1.20;;
16928;SDS011;8581;47.334;11.190;2023-04-03T06:43:24;1.30;;;1.20;;
16928;SDS011;8581;47.334;11.190;2023-04-03T06:45:56;1.03;;;1.03;;
16928;SDS011;8581;47.334;11.190;2023-04-03T06:48:28;1.20;;;1.20;;
16928;SDS011;8581;47.334;11.190;2023-04-03T06:50:59;1.30;;;1.20;;
16928;SDS011;8581;47.334;11.190;2023-04-03T06:53:31;1.17;;;1.07;;
16928;SDS011;8581;47.334;11.190;2023-04-03T06:56:05;1.00;;;1.00;;
16928;SDS011;8581;47.334;11.190;2023-04-03T06:58:37;0.93;;;0.93;;
16928;SDS011;8581;47.334;11.190;2023-04-03T07:01:09;0.80;;;0.80;;
16928;SDS011;8581;47.334;11.190;2023-04-03T07:03:40;1.00;;;1.00;;
16928;SDS011;8581;47.334;11.190;2023-04-03T07:06:12;1.57;;;1.47;;
16928;SDS011;8581;47.334;11.190;2023-04-03T07:08:43;1.23;;;1.13;;
16928;SDS011;8581;47.334;11.190;2023-04-03T07:11:15;1.40;;;1.30;;
16928;SDS011;8581;47.334;11.190;2023-04-03T07:13:46;1.97;;;0.90;;
16928;SDS011;8581;47.334;11.190;2023-04-03T07:16:18;1.37;;;1.27;;
16928;SDS011;8581;47.334;11.190;2023-04-03T07:18:50;0.90;;;0.90;;
16928;SDS011;8581;47.334;11.190;2023-04-03T07:21:21;1.00;;;1.00;;
16928;SDS011;8581;47.334;11.190;2023-04-03T07:23:55;1.10;;;1.00;;
16928;SDS011;8581;47.334;11.190;2023-04-03T07:26:30;1.83;;;1.30;;
16928;SDS011;8581;47.334;11.190;2023-04-03T07:29:05;1.20;;;1.10;;
16928;SDS011;8581;47.334;11.190;2023-04-03T07:31:42;1.93;;;1.20;;
16928;SDS011;8581;47.334;11.190;2023-04-03T07:34:13;1.00;;;1.00;;
16928;SDS011;8581;47.334;11.190;2023-04-03T07:36:45;0.97;;;0.97;;
16928;SDS011;8581;47.334;11.190;2023-04-03T07:39:18;1.30;;;1.20;;
16928;SDS011;8581;47.334;11.190;2023-04-03T07:41:50;1.00;;;1.00;;
16928;SDS011;8581;47.334;11.190;2023-04-03T07:44:21;0.80;;;0.80;;
16928;SDS011;8581;47.334;11.190;2023-04-03T07:46:53;1.00;;;1.00;;
16928;SDS011;8581;47.334;11.190;2023-04-03T07:49:24;1.10;;;1.00;;
16928;SDS011;8581;47.334;11.190;2023-04-03T07:51:56;1.20;;;0.93;;
16928;SDS011;8581;47.334;11.190;2023-04-03T07:54:28;1.30;;;1.20;;
16928;SDS011;8581;47.334;11.190;2023-04-03T07:56:59;0.90;;;0.90;;
16928;SDS011;8581;47.334;11.190;2023-04-03T07:59:31;0.80;;;0.80;;
16928;SDS011;8581;47.334;11.190;2023-04-03T08:02:03;0.80;;;0.80;;
16928;SDS011;8581;47.334;11.190;2023-04-03T08:04:35;0.90;;;0.90;;
16928;SDS011;8581;47.334;11.190;2023-04-03T08:07:06;0.87;;;0.87;;
16928;SDS011;8581;47.334;11.190;2023-04-03T08:09:38;0.70;;;0.70;;
16928;SDS011;8581;47.334;11.190;2023-04-03T08:12:10;0.70;;;0.70;;
16928;SDS011;8581;47.334;11.190;2023-04-03T08:14:41;0.67;;;0.67;;
16928;SDS011;8581;47.334;11.190;2023-04-03T08:17:13;0.60;;;0.60;;
16928;SDS011;8581;47.334;11.190;2023-04-03T08:19:45;0.70;;;0.70;;
16928;SDS011;8581;47.334;11.190;2023-04-03T08:22:16;0.60;;;0.60;;
16928;SDS011;8581;47.334;11.190;2023-04-03T08:24:48;0.70;;;0.70;;
16928;SDS011;8581;47.334;11.190;2023-04-03T08:27:19;1.20;;;1.10;;
16928;SDS011;8581;47.334;11.190;2023-04-03T08:29:51;0.70;;;0.70;;
16928;SDS011;8581;47.334;11.190;2023-04-03T08:32:23;1.80;;;1.10;;
16928;SDS011;8581;47.334;11.190;2023-04-03T08:34:54;0.70;;;0.70;;
16928;SDS011;8581;47.334;11.190;2023-04-03T08:37:26;1.00;;;0.60;;
16928;SDS011;8581;47.334;11.190;2023-04-03T08:39:57;0.63;;;0.63;;
16928;SDS011;8581;47.334;11.190;2023-04-03T08:42:35;0.80;;;0.80;;
16928;SDS011;8581;47.334;11.190;2023-04-03T08:45:12;1.00;;;0.90;;
16928;SDS011;8581;47.334;11.190;2023-04-03T08:47:50;1.33;;;1.20;;
16928;SDS011;8581;47.334;11.190;2023-04-03T08:50:31;0.70;;;0.70;;
16928;SDS011;8581;47.334;11.190;2023-04-03T08:53:03;0.70;;;0.60;;
16928;SDS011;8581;47.334;11.190;2023-04-03T08:55:37;0.60;;;0.60;;
16928;SDS011;8581;47.334;11.190;2023-04-03T08:58:09;0.53;;;0.53;;
16928;SDS011;8581;47.334;11.190;2023-04-03T09:00:41;0.70;;;0.70;;
16928;SDS011;8581;47.334;11.190;2023-04-03T09:03:14;0.93;;;0.80;;
16928;SDS011;8581;47.334;11.190;2023-04-03T09:05:51;0.50;;;0.50;;
16928;SDS011;8581;47.334;11.190;2023-04-03T09:08:27;0.60;;;0.60;;
16928;SDS011;8581;47.334;11.190;2023-04-03T09:11:03;0.50;;;0.50;;
16928;SDS011;8581;47.334;11.190;2023-04-03T09:13:44;0.70;;;0.70;;
16928;SDS011;8581;47.334;11.190;2023-04-03T09:16:18;0.57;;;0.57;;
16928;SDS011;8581;47.334;11.190;2023-04-03T09:18:48;0.83;;;0.80;;
16928;SDS011;8581;47.334;11.190;2023-04-03T09:21:21;0.70;;;0.70;;
16928;SDS011;8581;47.334;11.190;2023-04-03T09:23:52;0.77;;;0.77;;
16928;SDS011;8581;47.334;11.190;2023-04-03T09:26:26;0.70;;;0.70;;
16928;SDS011;8581;47.334;11.190;2023-04-03T09:29:01;0.50;;;0.50;;
16928;SDS011;8581;47.334;11.190;2023-04-03T09:31:37;0.53;;;0.53;;
16928;SDS011;8581;47.334;11.190;2023-04-03T09:34:12;0.70;;;0.70;;
16928;SDS011;8581;47.334;11.190;2023-04-03T09:42:24;0.80;;;0.80;;
16928;SDS011;8581;47.334;11.190;2023-04-03T09:44:57;0.80;;;0.80;;
16928;SDS011;8581;47.334;11.190;2023-04-03T09:47:29;3.63;;;3.23;;
16928;SDS011;8581;47.334;11.190;2023-04-03T09:52:51;1.20;;;1.10;;
16928;SDS011;8581;47.334;11.190;2023-04-03T09:55:25;0.60;;;0.60;;
16928;SDS011;8581;47.334;11.190;2023-04-03T09:57:58;1.20;;;1.00;;
16928;SDS011;8581;47.334;11.190;2023-04-03T10:00:34;0.90;;;0.90;;
16928;SDS011;8581;47.334;11.190;2023-04-03T10:03:04;0.80;;;0.80;;
16928;SDS011;8581;47.334;11.190;2023-04-03T10:05:37;0.90;;;0.90;;
16928;SDS011;8581;47.334;11.190;2023-04-03T10:08:25;1.30;;;1.20;;
16928;SDS011;8581;47.334;11.190;2023-04-03T10:13:48;0.90;;;0.90;;
16928;SDS011;8581;47.334;11.190;2023-04-03T10:16:12;1.07;;;0.90;;
16928;SDS011;8581;47.334;11.190;2023-04-03T10:18:44;2.37;;;2.03;;
16928;SDS011;8581;47.334;11.190;2023-04-03T10:21:19;1.37;;;0.90;;
16928;SDS011;8581;47.334;11.190;2023-04-03T10:23:54;2.50;;;2.30;;
16928;SDS011;8581;47.334;11.190;2023-04-03T10:26:29;1.45;;;1.35;;
16928;SDS011;8581;47.334;11.190;2023-04-03T10:29:13;1.20;;;1.10;;
16928;SDS011;8581;47.334;11.190;2023-04-03T10:32:35;1.20;;;1.10;;
16928;SDS011;8581;47.334;11.190;2023-04-03T10:35:37;1.37;;;1.27;;
16928;SDS011;8581;47.334;11.190;2023-04-03T10:37:53;1.62;;;1.07;;
16928;SDS011;8581;47.334;11.190;2023-04-03T10:40:27;0.88;;;0.88;;
16928;SDS011;8581;47.334;11.190;2023-04-03T10:43:17;1.87;;;1.35;;
16928;SDS011;8581;47.334;11.190;2023-04-03T10:48:45;0.90;;;0.90;;
16928;SDS011;8581;47.334;11.190;2023-04-03T10:51:20;1.57;;;1.47;;
16928;SDS011;8581;47.334;11.190;2023-04-03T10:53:52;0.90;;;0.90;;
16928;SDS011;8581;47.334;11.190;2023-04-03T10:59:13;1.10;;;1.00;;
16928;SDS011;8581;47.334;11.190;2023-04-03T11:01:56;1.32;;;1.22;;
16928;SDS011;8581;47.334;11.190;2023-04-03T11:04:29;1.50;;;1.40;;
16928;SDS011;8581;47.334;11.190;2023-04-03T11:07:02;1.25;;;1.10;;
16928;SDS011;8581;47.334;11.190;2023-04-03T11:09:33;1.47;;;1.37;;
16928;SDS011;8581;47.334;11.190;2023-04-03T11:12:04;1.20;;;1.13;;
16928;SDS011;8581;47.334;11.190;2023-04-03T11:14:36;1.20;;;1.10;;
16928;SDS011;8581;47.334;11.190;2023-04-03T11:20:08;1.67;;;1.43;;
16928;SDS011;8581;47.334;11.190;2023-04-03T11:22:39;1.30;;;1.20;;
16928;SDS011;8581;47.334;11.190;2023-04-03T11:25:17;1.40;;;1.30;;
16928;SDS011;8581;47.334;11.190;2023-04-03T11:27:55;1.20;;;1.10;;
16928;SDS011;8581;47.334;11.190;2023-04-03T11:30:33;1.17;;;1.07;;
16928;SDS011;8581;47.334;11.190;2023-04-03T11:38:41;1.40;;;1.30;;
16928;SDS011;8581;47.334;11.190;2023-04-03T11:41:13;0.90;;;0.90;;
16928;SDS011;8581;47.334;11.190;2023-04-03T11:44:02;0.90;;;0.90;;
16928;SDS011;8581;47.334;11.190;2023-04-03T11:52:09;1.00;;;1.00;;
16928;SDS011;8581;47.334;11.190;2023-04-03T11:54:44;1.20;;;1.10;;
16928;SDS011;8581;47.334;11.190;2023-04-03T11:57:43;1.73;;;1.63;;
16928;SDS011;8581;47.334;11.190;2023-04-03T12:02:51;0.90;;;0.90;;
16928;SDS011;8581;47.334;11.190;2023-04-03T12:05:25;1.40;;;1.30;;
16928;SDS011;8581;47.334;11.190;2023-04-03T12:10:39;1.50;;;1.40;;
16928;SDS011;8581;47.334;11.190;2023-04-03T12:13:15;1.43;;;1.33;;
16928;SDS011;8581;47.334;11.190;2023-04-03T12:15:47;1.53;;;1.37;;
16928;SDS011;8581;47.334;11.190;2023-04-03T12:21:00;1.30;;;1.20;;
16928;SDS011;8581;47.334;11.190;2023-04-03T12:23:33;1.40;;;1.30;;
16928;SDS011;8581;47.334;11.190;2023-04-03T12:26:18;1.40;;;1.30;;
16928;SDS011;8581;47.334;11.190;2023-04-03T12:28:37;2.70;;;1.40;;
16928;SDS011;8581;47.334;11.190;2023-04-03T12:31:09;1.40;;;1.30;;
16928;SDS011;8581;47.334;11.190;2023-04-03T12:33:58;1.30;;;1.20;;
16928;SDS011;8581;47.334;11.190;2023-04-03T12:36:39;1.30;;;1.20;;
16928;SDS011;8581;47.334;11.190;2023-04-03T12:39:33;1.37;;;1.27;;
16928;SDS011;8581;47.334;11.190;2023-04-03T12:45:14;1.10;;;1.00;;
16928;SDS011;8581;47.334;11.190;2023-04-03T12:47:45;1.30;;;1.20;;
16928;SDS011;8581;47.334;11.190;2023-04-03T12:50:19;1.20;;;1.10;;
16928;SDS011;8581;47.334;11.190;2023-04-03T12:52:52;1.10;;;1.00;;
16928;SDS011;8581;47.334;11.190;2023-04-03T12:55:22;1.12;;;1.02;;
16928;SDS011;8581;47.334;11.190;2023-04-03T12:57:54;0.80;;;0.80;;
16928;SDS011;8581;47.334;11.190;2023-04-03T13:00:34;1.23;;;1.20;;
16928;SDS011;8581;47.334;11.190;2023-04-03T13:03:07;1.13;;;1.07;;
16928;SDS011;8581;47.334;11.190;2023-04-03T13:05:38;0.90;;;0.90;;
16928;SDS011;8581;47.334;11.190;2023-04-03T13:08:10;1.00;;;0.95;;
16928;SDS011;8581;47.334;11.190;2023-04-03T13:10:43;1.37;;;1.10;;
16928;SDS011;8581;47.334;11.190;2023-04-03T13:13:14;1.05;;;1.00;;
16928;SDS011;8581;47.334;11.190;2023-04-03T13:15:46;1.85;;;1.12;;
16928;SDS011;8581;47.334;11.190;2023-04-03T13:18:22;1.10;;;1.00;;
16928;SDS011;8581;47.334;11.190;2023-04-03T13:20:52;1.30;;;1.20;;
16928;SDS011;8581;47.334;11.190;2023-04-03T13:23:24;1.35;;;1.27;;
16928;SDS011;8581;47.334;11.190;2023-04-03T13:25:55;1.10;;;1.10;;
16928;SDS011;8581;47.334;11.190;2023-04-03T13:28:27;1.00;;;1.00;;
16928;SDS011;8581;47.334;11.190;2023-04-03T13:31:17;1.30;;;1.20;;
16928;SDS011;8581;47.334;11.190;2023-04-03T13:34:06;0.90;;;0.90;;
16928;SDS011;8581;47.334;11.190;2023-04-03T13:36:38;0.82;;;0.82;;
16928;SDS011;8581;47.334;11.190;2023-04-03T13:39:27;0.80;;;0.80;;
16928;SDS011;8581;47.334;11.190;2023-04-03T13:41:58;1.55;;;0.90;;
16928;SDS011;8581;47.334;11.190;2023-04-03T13:44:30;0.90;;;0.90;;
16928;SDS011;8581;47.334;11.190;2023-04-03T13:49:45;1.32;;;1.22;;
16928;SDS011;8581;47.334;11.190;2023-04-03T13:52:30;1.32;;;1.20;;
16928;SDS011;8581;47.334;11.190;2023-04-03T13:55:50;1.75;;;1.10;;
16928;SDS011;8581;47.334;11.190;2023-04-03T13:57:54;1.95;;;0.95;;
16928;SDS011;8581;47.334;11.190;2023-04-03T14:00:28;1.20;;;1.10;;
16928;SDS011;8581;47.334;11.190;2023-04-03T14:02:58;1.03;;;1.00;;
16928;SDS011;8581;47.334;11.190;2023-04-03T14:05:30;1.27;;;1.13;;
16928;SDS011;8581;47.334;11.190;2023-04-03T14:08:01;0.90;;;0.90;;
16928;SDS011;8581;47.334;11.190;2023-04-03T14:10:33;1.10;;;1.00;;
16928;SDS011;8581;47.334;11.190;2023-04-03T14:13:05;1.07;;;1.07;;
16928;SDS011;8581;47.334;11.190;2023-04-03T14:15:36;1.17;;;1.10;;
16928;SDS011;8581;47.334;11.190;2023-04-03T14:18:12;2.57;;;1.20;;
16928;SDS011;8581;47.334;11.190;2023-04-03T14:20:43;1.10;;;1.00;;
16928;SDS011;8581;47.334;11.190;2023-04-03T14:23:14;1.37;;;1.10;;
16928;SDS011;8581;47.334;11.190;2023-04-03T14:25:46;0.88;;;0.88;;
16928;SDS011;8581;47.334;11.190;2023-04-03T14:28:19;0.88;;;0.88;;
16928;SDS011;8581;47.334;11.190;2023-04-03T14:30:49;0.90;;;0.90;;
16928;SDS011;8581;47.334;11.190;2023-04-03T14:33:22;0.80;;;0.80;;
16928;SDS011;8581;47.334;11.190;2023-04-03T14:35:52;1.13;;;1.07;;
16928;SDS011;8581;47.334;11.190;2023-04-03T14:38:25;2.15;;;1.30;;
16928;SDS011;8581;47.334;11.190;2023-04-03T14:40:56;0.82;;;0.82;;
16928;SDS011;8581;47.334;11.190;2023-04-03T14:43:27;1.22;;;1.00;;
16928;SDS011;8581;47.334;11.190;2023-04-03T14:45:59;1.30;;;1.20;;
16928;SDS011;8581;47.334;11.190;2023-04-03T14:48:30;1.03;;;1.03;;
16928;SDS011;8581;47.334;11.190;2023-04-03T14:51:02;1.13;;;1.10;;
16928;SDS011;8581;47.334;11.190;2023-04-03T14:53:34;1.10;;;1.10;;
16928;SDS011;8581;47.334;11.190;2023-04-03T14:56:11;1.13;;;1.03;;
16928;SDS011;8581;47.334;11.190;2023-04-03T14:58:43;1.00;;;1.00;;
16928;SDS011;8581;47.334;11.190;2023-04-03T15:01:15;1.80;;;1.30;;
16928;SDS011;8581;47.334;11.190;2023-04-03T15:03:46;1.07;;;1.07;;
16928;SDS011;8581;47.334;11.190;2023-04-03T15:06:18;1.17;;;1.07;;
16928;SDS011;8581;47.334;11.190;2023-04-03T15:08:50;1.10;;;1.10;;
16928;SDS011;8581;47.334;11.190;2023-04-03T15:11:21;1.20;;;1.10;;
16928;SDS011;8581;47.334;11.190;2023-04-03T15:13:53;1.43;;;1.23;;
16928;SDS011;8581;47.334;11.190;2023-04-03T15:16:24;1.10;;;1.10;;
16928;SDS011;8581;47.334;11.190;2023-04-03T15:18:56;1.40;;;1.30;;
16928;SDS011;8581;47.334;11.190;2023-04-03T15:21:28;1.30;;;1.20;;
16928;SDS011;8581;47.334;11.190;2023-04-03T15:23:59;1.30;;;1.20;;
16928;SDS011;8581;47.334;11.190;2023-04-03T15:26:31;1.50;;;1.40;;
16928;SDS011;8581;47.334;11.190;2023-04-03T15:29:03;1.70;;;1.60;;
16928;SDS011;8581;47.334;11.190;2023-04-03T15:31:34;1.60;;;1.50;;
16928;SDS011;8581;47.334;11.190;2023-04-03T15:34:06;1.23;;;1.13;;
16928;SDS011;8581;47.334;11.190;2023-04-03T15:36:37;1.40;;;1.30;;
16928;SDS011;8581;47.334;11.190;2023-04-03T15:39:09;1.40;;;1.30;;
16928;SDS011;8581;47.334;11.190;2023-04-03T15:41:40;1.57;;;1.47;;
16928;SDS011;8581;47.334;11.190;2023-04-03T15:44:12;1.80;;;1.43;;
16928;SDS011;8581;47.334;11.190;2023-04-03T15:46:45;1.83;;;1.27;;
16928;SDS011;8581;47.334;11.190;2023-04-03T15:49:18;1.50;;;1.30;;
16928;SDS011;8581;47.334;11.190;2023-04-03T15:51:49;1.53;;;1.43;;
16928;SDS011;8581;47.334;11.190;2023-04-03T15:54:21;1.17;;;1.07;;
16928;SDS011;8581;47.334;11.190;2023-04-03T15:56:53;1.40;;;1.30;;
16928;SDS011;8581;47.334;11.190;2023-04-03T15:59:24;1.37;;;1.27;;
16928;SDS011;8581;47.334;11.190;2023-04-03T16:01:55;1.10;;;1.10;;
16928;SDS011;8581;47.334;11.190;2023-04-03T16:04:27;1.33;;;1.23;;
16928;SDS011;8581;47.334;11.190;2023-04-03T16:07:01;1.27;;;1.20;;
16928;SDS011;8581;47.334;11.190;2023-04-03T16:09:31;1.30;;;1.20;;
16928;SDS011;8581;47.334;11.190;2023-04-03T16:12:03;1.00;;;1.00;;
16928;SDS011;8581;47.334;11.190;2023-04-03T16:14:34;1.20;;;1.10;;
16928;SDS011;8581;47.334;11.190;2023-04-03T16:17:06;1.43;;;1.30;;
16928;SDS011;8581;47.334;11.190;2023-04-03T16:19:38;1.77;;;1.40;;
16928;SDS011;8581;47.334;11.190;2023-04-03T16:22:09;1.43;;;1.33;;
16928;SDS011;8581;47.334;11.190;2023-04-03T16:24:42;2.30;;;1.50;;
16928;SDS011;8581;47.334;11.190;2023-04-03T16:27:14;1.93;;;1.40;;